Time;durP1;ratioP1;P1;durP2;ratioP2;P2;SDS_P1;SDS_P2;PMS_P1;PMS_P2;Temp;Humidity;BMP_temperature;BMP_pressure;BME280_temperature;BME280_humidity;BME280_pressure;Samples;Min_cycle;Max_cycle;Signal;HPM_P1;HPM_P2
2023/08/16 00:00:54;;;;;;;7.53;4.03;;;;;;;22.24;75.14;100833.88;4098460;29;20058;-60
2023/08/16 00:02:57;;;;;;;6.28;3.67;;;;;;;22.22;74.96;100833.91;4097422;28;20402;-59
2023/08/16 00:05:01;;;;;;;8.10;3.20;;;;;;;22.22;75.11;100835.69;4098784;29;20516;-59
2023/08/16 00:07:03;;;;;;;7.65;3.58;;;;;;;22.18;75.47;100840.22;4098601;28;20106;-60
2023/08/16 00:09:06;;;;;;;6.13;3.63;;;;;;;22.16;75.57;100842.03;4099388;29;20039;-59
2023/08/16 00:11:09;;;;;;;4.88;3.70;;;;;;;22.17;75.46;100835.84;4096958;29;20130;-60
2023/08/16 00:13:12;;;;;;;5.95;3.47;;;;;;;22.15;75.40;100837.63;4090394;29;20090;-59
2023/08/16 00:15:17;;;;;;;5.55;3.25;;;;;;;22.17;75.39;100835.84;4095610;29;20071;-60
2023/08/16 00:17:20;;;;;;;8.70;4.05;;;;;;;22.18;75.61;100836.69;4096193;29;20028;-59
2023/08/16 00:19:23;;;;;;;5.88;3.83;;;;;;;22.18;75.56;100832.28;4095454;28;20046;-59
2023/08/16 00:21:27;;;;;;;9.82;4.03;;;;;;;22.17;75.57;100830.53;4094722;29;20043;-60
2023/08/16 00:23:29;;;;;;;8.55;4.32;;;;;;;22.15;75.51;100827.03;4096962;28;20466;-60
2023/08/16 00:25:32;;;;;;;9.25;4.40;;;;;;;22.16;75.79;100817.34;4099435;29;20043;-60
2023/08/16 00:27:35;;;;;;;8.40;4.47;;;;;;;22.12;75.89;100817.44;4099026;28;20037;-60
2023/08/16 00:29:38;;;;;;;5.60;3.60;;;;;;;22.12;76.04;100816.53;4097204;29;20122;-60
2023/08/16 00:31:42;;;;;;;7.47;4.20;;;;;;;22.12;75.88;100808.59;4094227;29;20055;-60
2023/08/16 00:33:45;;;;;;;10.57;4.47;;;;;;;22.08;75.79;100801.69;4081257;29;20054;-60
2023/08/16 00:35:48;;;;;;;9.10;3.75;;;;;;;22.02;75.90;100805.38;4089051;29;20035;-60
2023/08/16 00:37:52;;;;;;;7.28;4.60;;;;;;;21.98;76.10;100798.41;4111285;28;20497;-59
2023/08/16 00:39:56;;;;;;;8.57;4.20;;;;;;;21.96;75.90;100795.81;4098629;28;20098;-60
2023/08/16 00:41:59;;;;;;;8.85;4.15;;;;;;;21.97;76.12;100792.22;4094210;29;20077;-60
2023/08/16 00:44:02;;;;;;;6.93;4.25;;;;;;;21.97;76.16;100781.63;4097570;28;20146;-61
2023/08/16 00:46:06;;;;;;;7.47;4.05;;;;;;;21.98;75.79;100779.88;4081450;29;20142;-61
2023/08/16 00:48:10;;;;;;;10.30;4.45;;;;;;;21.95;76.02;100780.81;4096735;29;20073;-61
2023/08/16 00:50:13;;;;;;;;;;;;;;;21.84;76.38;100777.59;4097431;28;20410;-61
2023/08/16 00:52:16;;;;;;;6.55;3.88;;;;;;;21.88;76.53;100781.91;4097999;29;19926;-61
2023/08/16 00:54:19;;;;;;;6.05;4.60;;;;;;;21.94;76.21;100781.72;4098342;28;20197;-59
2023/08/16 00:56:22;;;;;;;6.50;3.75;;;;;;;21.94;76.20;100776.44;4096891;29;20126;-59
2023/08/16 00:58:25;;;;;;;7.55;3.58;;;;;;;21.96;75.86;100774.63;4096272;28;20485;-60
2023/08/16 01:00:28;;;;;;;5.07;3.70;;;;;;;21.95;76.09;100777.31;4100267;28;20495;-60
2023/08/16 01:02:32;;;;;;;9.75;3.92;;;;;;;21.94;76.20;100772.94;4096855;28;20313;-60
2023/08/16 01:04:37;;;;;;;6.10;3.85;;;;;;;21.93;76.13;100764.13;4105134;28;20050;-59
2023/08/16 01:06:40;;;;;;;7.03;4.15;;;;;;;21.93;75.99;100766.78;4097286;28;20817;-59
2023/08/16 01:08:43;;;;;;;6.20;3.70;;;;;;;21.92;76.15;100772.97;4078737;29;20044;-59
2023/08/16 01:10:52;;;;;;;7.13;3.70;;;;;;;21.92;76.10;100774.75;4095897;28;20051;-60
2023/08/16 01:13:02;;;;;;;7.28;4.50;;;;;;;21.89;76.26;100767.78;4096144;28;20050;-61
2023/08/16 01:15:13;;;;;;;7.43;4.32;;;;;;;21.90;76.00;100771.28;4110324;28;20049;-60
2023/08/16 01:17:17;;;;;;;7.10;3.60;;;;;;;21.85;76.11;100755.53;4111617;28;20049;-60
2023/08/16 01:19:28;;;;;;;8.68;3.67;;;;;;;21.84;76.11;100755.56;4112272;28;20066;-59
2023/08/16 01:21:40;;;;;;;6.25;3.70;;;;;;;21.84;76.09;100747.63;4078847;29;20044;-60
2023/08/16 01:23:54;;;;;;;7.95;4.88;;;;;;;21.87;75.54;100750.19;4095456;28;20035;-60
2023/08/16 01:26:07;;;;;;;6.53;4.30;;;;;;;21.86;75.59;100751.09;4101390;28;20070;-60
2023/08/16 01:28:11;;;;;;;5.93;4.55;;;;;;;21.86;75.66;100753.75;4097406;28;20043;-60
2023/08/16 01:30:15;;;;;;;6.40;4.35;;;;;;;21.85;75.66;100757.31;4095401;28;20058;-60
2023/08/16 01:32:18;;;;;;;7.78;4.90;;;;;;;21.85;75.64;100755.53;4096740;28;20039;-60
2023/08/16 01:34:21;;;;;;;5.75;3.78;;;;;;;21.85;75.81;100755.53;4094490;28;20051;-60
2023/08/16 01:36:24;;;;;;;6.43;4.03;;;;;;;21.85;75.82;100765.25;4096177;29;20178;-60
2023/08/16 01:38:27;;;;;;;10.30;4.50;;;;;;;21.86;75.76;100765.22;4079492;29;20040;-60
2023/08/16 01:40:35;;;;;;;6.37;4.30;;;;;;;21.84;75.81;100767.00;4095633;28;20563;-61
2023/08/16 01:42:47;;;;;;;7.53;3.92;;;;;;;21.85;75.98;100763.47;4097507;28;20294;-59
2023/08/16 01:44:52;;;;;;;9.98;4.03;;;;;;;21.85;76.15;100767.91;4094507;28;20042;-60
2023/08/16 01:46:56;;;;;;;7.65;3.30;;;;;;;21.84;76.40;100772.31;4091284;28;20564;-59
2023/08/16 01:49:01;;;;;;;8.80;5.65;;;;;;;21.81;76.33;100780.34;4097980;29;20031;-59
2023/08/16 01:51:05;;;;;;;7.78;5.75;;;;;;;21.81;76.30;100779.47;4098382;28;20083;-60
2023/08/16 01:53:08;;;;;;;10.30;4.43;;;;;;;21.80;76.30;100778.63;4095873;28;20528;-60
2023/08/16 01:55:12;;;;;;;7.13;4.80;;;;;;;21.81;76.38;100784.78;4106442;28;20048;-59
2023/08/16 01:57:15;;;;;;;8.63;6.75;;;;;;;21.81;76.22;100779.47;4106459;28;20093;-59
2023/08/16 01:59:18;;;;;;;9.52;7.28;;;;;;;21.84;75.85;100780.25;4096025;28;20059;-60
2023/08/16 02:01:22;;;;;;;11.70;7.38;;;;;;;21.84;75.79;100782.91;4097017;28;20043;-60
2023/08/16 02:03:24;;;;;;;8.65;7.15;;;;;;;21.85;75.87;100786.44;4096561;28;20066;-60
2023/08/16 02:05:28;;;;;;;8.88;6.55;;;;;;;21.87;75.58;100784.59;4092674;28;20487;-60
2023/08/16 02:07:30;;;;;;;13.10;7.60;;;;;;;21.88;75.23;100781.91;4093171;29;20533;-59
2023/08/16 02:09:33;;;;;;;11.43;7.13;;;;;;;21.89;75.32;100782.75;4111449;28;20070;-59
2023/08/16 02:11:36;;;;;;;17.88;6.82;;;;;;;21.85;75.49;100786.44;4096700;29;20043;-59
2023/08/16 02:13:39;;;;;;;9.70;7.28;;;;;;;21.82;75.48;100784.72;4096498;28;20039;-60
2023/08/16 02:15:42;;;;;;;9.55;6.60;;;;;;;21.77;75.72;100782.22;4111304;28;20452;-60
2023/08/16 02:17:46;;;;;;;10.60;7.35;;;;;;;21.76;75.59;100795.50;4096566;28;20457;-60
2023/08/16 02:19:48;;;;;;;10.50;6.75;;;;;;;21.70;75.90;100798.28;4096520;29;20594;-60
2023/08/16 02:21:51;;;;;;;7.40;6.07;;;;;;;21.70;76.01;100798.28;4097182;29;20098;-60
2023/08/16 02:23:55;;;;;;;9.80;6.00;;;;;;;21.72;75.84;100797.34;4095344;28;20350;-60
2023/08/16 02:25:58;;;;;;;9.93;5.63;;;;;;;21.70;75.69;100806.22;4108603;28;20404;-60
2023/08/16 02:28:00;;;;;;;8.65;6.30;;;;;;;21.73;75.65;100804.38;4094990;29;20063;-60
2023/08/16 02:30:04;;;;;;;8.13;5.53;;;;;;;21.72;75.61;100801.78;4092390;29;20098;-60
2023/08/16 02:32:07;;;;;;;10.25;6.18;;;;;;;21.73;75.20;100807.03;4096246;29;20050;-59
2023/08/16 02:34:13;;;;;;;6.35;4.85;;;;;;;21.66;75.39;100808.09;4104218;23;20106;-65
2023/08/16 02:36:16;;;;;;;8.52;5.75;;;;;;;21.63;75.57;100812.59;4095744;28;20134;-65
2023/08/16 02:38:19;;;;;;;10.13;6.88;;;;;;;21.68;75.14;100816.84;4111729;28;20039;-65
2023/08/16 02:40:22;;;;;;;10.48;5.85;;;;;;;21.66;75.52;100804.59;4108009;28;20424;-65
2023/08/16 02:42:24;;;;;;;12.43;6.97;;;;;;;21.66;75.55;100802.78;4095704;28;20421;-65
2023/08/16 02:44:27;;;;;;;9.05;5.53;;;;;;;21.64;75.64;100791.41;4094591;29;20043;-66
2023/08/16 02:46:31;;;;;;;7.22;5.30;;;;;;;21.65;75.24;100782.53;4092107;28;20542;-66
2023/08/16 02:48:33;;;;;;;9.13;6.25;;;;;;;21.72;75.59;100777.94;4098878;28;20436;-65
2023/08/16 02:50:37;;;;;;;10.27;6.60;;;;;;;21.81;74.85;100774.19;4078652;29;20494;-65
2023/08/16 02:52:40;;;;;;;10.50;5.85;;;;;;;21.70;75.47;100769.16;4094248;29;20165;-65
2023/08/16 02:54:43;;;;;;;8.65;6.07;;;;;;;21.59;75.93;100770.31;4095467;28;20099;-65
2023/08/16 02:56:46;;;;;;;9.27;5.28;;;;;;;21.56;76.41;100772.19;4094580;29;20047;-66
2023/08/16 02:58:49;;;;;;;10.30;6.03;;;;;;;21.57;76.48;100773.94;4097680;28;20045;-65
2023/08/16 03:00:52;;;;;;;9.90;6.55;;;;;;;21.56;76.48;100773.06;4111572;28;20042;-65
2023/08/16 03:02:55;;;;;;;9.77;6.88;;;;;;;21.56;76.63;100767.75;4096372;28;20070;-65
2023/08/16 03:04:58;;;;;;;8.55;6.30;;;;;;;21.56;76.51;100765.13;4097990;28;20067;-65
2023/08/16 03:07:03;;;;;;;7.32;5.70;;;;;;;21.59;76.54;100770.31;4095258;29;20055;-66
2023/08/16 03:09:06;;;;;;;8.93;5.18;;;;;;;21.59;76.79;100772.13;4098271;29;20036;-65
2023/08/16 03:11:09;;;;;;;8.82;5.22;;;;;;;21.61;76.60;100776.47;4099890;28;20513;-65
2023/08/16 03:13:12;;;;;;;10.60;5.25;;;;;;;21.63;76.73;100780.84;4114256;28;20049;-65
2023/08/16 03:15:15;;;;;;;9.98;5.50;;;;;;;21.61;76.91;100771.16;4114908;28;20145;-65
2023/08/16 03:17:17;;;;;;;8.80;4.93;;;;;;;21.61;76.86;100772.94;4082802;29;20070;-65
2023/08/16 03:19:20;;;;;;;9.32;5.00;;;;;;;21.64;76.88;100777.28;4099661;29;20504;-65
2023/08/16 03:21:23;;;;;;;11.82;5.80;;;;;;;21.61;76.99;100776.47;4084562;29;20039;-65
2023/08/16 03:23:28;;;;;;;9.32;5.35;;;;;;;21.61;76.77;100780.88;4113322;28;20127;-65
2023/08/16 03:25:31;;;;;;;8.60;5.75;;;;;;;21.59;77.11;100783.56;4098122;28;20125;-65
2023/08/16 03:27:34;;;;;;;8.52;5.75;;;;;;;21.60;77.07;100782.66;4098451;28;20512;-65
2023/08/16 03:29:38;;;;;;;7.88;5.20;;;;;;;21.63;76.96;100776.41;4097958;29;20062;-65
2023/08/16 03:31:41;;;;;;;11.90;9.05;;;;;;;21.76;76.18;100772.53;4100241;29;20043;-65
2023/08/16 03:33:45;;;;;;;10.55;7.57;;;;;;;21.67;76.34;100783.38;4082239;29;20044;-65
2023/08/16 03:35:49;;;;;;;7.20;5.65;;;;;;;21.51;77.17;100801.44;4114831;28;20071;-65
2023/08/16 03:37:52;;;;;;;9.73;5.38;;;;;;;21.53;77.33;100796.09;4082764;29;20078;-65
2023/08/16 03:39:57;;;;;;;10.82;6.35;;;;;;;21.54;77.41;100798.69;4098999;29;20358;-65
2023/08/16 03:42:00;;;;;;;11.65;7.20;;;;;;;21.56;77.36;100802.16;4082985;29;20409;-65
2023/08/16 03:44:06;;;;;;;11.02;8.23;;;;;;;21.60;77.34;100795.03;4098002;28;20054;-65
2023/08/16 03:46:09;;;;;;;7.55;5.40;;;;;;;21.64;77.26;100798.44;4096310;29;20047;-65
2023/08/16 03:48:12;;;;;;;8.57;6.40;;;;;;;21.64;77.54;100798.44;4097227;28;20046;-65
2023/08/16 03:50:15;;;;;;;8.35;5.70;;;;;;;21.64;77.66;100787.88;4097359;28;20036;-65
2023/08/16 03:52:18;;;;;;;9.68;5.93;;;;;;;21.59;78.05;100796.78;4099835;28;20043;-65
2023/08/16 03:54:20;;;;;;;8.90;5.38;;;;;;;21.60;77.91;100792.38;4097842;28;20124;-65
2023/08/16 03:56:25;;;;;;;6.65;5.15;;;;;;;21.62;78.16;100795.84;4099799;28;20045;-65
2023/08/16 03:58:30;;;;;;;7.95;6.15;;;;;;;21.58;78.14;100795.06;4080280;29;20052;-65
2023/08/16 04:00:33;;;;;;;9.82;5.93;;;;;;;21.58;78.09;100803.00;4098610;28;20046;-65
2023/08/16 04:02:35;;;;;;;7.63;5.90;;;;;;;21.58;78.15;100800.34;4095243;28;20071;-65
2023/08/16 04:04:38;;;;;;;9.02;6.28;;;;;;;21.59;78.14;100804.72;4099242;28;20110;-65
2023/08/16 04:06:41;;;;;;;10.23;6.32;;;;;;;21.58;78.15;100805.66;4097786;28;20182;-66
2023/08/16 04:08:44;;;;;;;7.35;5.20;;;;;;;21.57;78.10;100805.69;4078734;29;20071;-65
2023/08/16 04:10:46;;;;;;;8.00;6.47;;;;;;;21.56;78.00;100811.88;4112750;28;20043;-65
2023/08/16 04:12:52;;;;;;;9.30;5.90;;;;;;;21.56;78.33;100811.88;4097889;28;20496;-65
2023/08/16 04:14:57;;;;;;;7.68;5.70;;;;;;;21.58;78.43;100820.63;4094721;28;20035;-65
2023/08/16 04:17:00;;;;;;;8.32;6.85;;;;;;;21.60;78.26;100809.13;4098652;29;20173;-65
2023/08/16 04:19:03;;;;;;;7.50;5.63;;;;;;;21.61;78.34;100802.91;4092740;28;20081;-65
2023/08/16 04:21:06;;;;;;;11.95;6.47;;;;;;;21.61;78.45;100808.22;4094356;28;20043;-65
2023/08/16 04:23:09;;;;;;;8.15;5.25;;;;;;;21.58;78.66;100804.75;4097236;28;20049;-65
2023/08/16 04:25:12;;;;;;;9.25;6.03;;;;;;;21.57;78.71;100801.25;4095538;28;20047;-65
2023/08/16 04:27:58;;;;;;;12.07;6.90;;;;;;;21.60;78.33;100800.31;4078681;29;21019;-64
2023/08/16 04:30:00;;;;;;;8.50;6.25;;;;;;;21.55;78.47;100789.88;4111070;28;20042;-67
2023/08/16 04:32:04;;;;;;;8.32;6.03;;;;;;;21.58;78.27;100791.53;4097703;28;20043;-64
2023/08/16 04:34:07;;;;;;;11.65;9.18;;;;;;;21.66;77.70;100786.06;4096074;29;20043;-66
2023/08/16 04:36:10;;;;;;;10.80;8.40;;;;;;;21.63;77.55;100778.22;4099382;28;20504;-66
2023/08/16 04:38:14;;;;;;;9.70;7.28;;;;;;;21.57;77.70;100771.31;4096617;29;20294;-66
2023/08/16 04:40:18;;;;;;;10.63;8.02;;;;;;;21.57;77.87;100761.56;4096244;29;20034;-67
2023/08/16 04:42:20;;;;;;;12.13;9.40;;;;;;;21.66;77.64;100762.25;4112619;28;20142;-67
2023/08/16 04:44:25;;;;;;;13.48;9.75;;;;;;;21.62;77.47;100756.16;4097054;29;20049;-67
2023/08/16 04:46:28;;;;;;;11.95;10.13;;;;;;;21.59;77.82;100748.31;4097200;29;20523;-67
2023/08/16 04:48:30;;;;;;;12.50;10.40;;;;;;;21.59;77.91;100748.31;4114097;28;20121;-67
2023/08/16 04:50:33;;;;;;;12.85;10.35;;;;;;;21.59;77.50;100743.00;4097708;28;20032;-66
2023/08/16 04:52:37;;;;;;;12.00;10.30;;;;;;;21.54;77.74;100751.06;4081916;29;20601;-67
2023/08/16 04:54:41;;;;;;;10.23;8.27;;;;;;;21.54;77.79;100771.38;4092794;29;20605;-65
2023/08/16 04:56:43;;;;;;;11.18;9.20;;;;;;;21.55;77.90;100779.28;4095890;28;20039;-65
2023/08/16 04:58:47;;;;;;;10.90;7.93;;;;;;;21.50;78.58;100802.28;4083321;29;20150;-65
2023/08/16 05:00:52;;;;;;;16.77;12.35;;;;;;;21.60;78.13;100808.25;4112944;28;20027;-65
2023/08/16 05:02:55;;;;;;;16.77;13.43;;;;;;;21.57;77.91;100808.34;4113407;28;20047;-65
2023/08/16 05:04:59;;;;;;;11.70;10.00;;;;;;;21.58;77.84;100813.59;4110425;28;20038;-65
2023/08/16 05:07:02;;;;;;;16.15;12.35;;;;;;;21.44;78.61;100816.53;4094774;29;20117;-65
2023/08/16 05:09:06;;;;;;;16.70;15.00;;;;;;;21.57;78.20;100811.84;4097755;29;20047;-65
2023/08/16 05:11:09;;;;;;;24.33;16.53;;;;;;;21.63;77.79;100797.59;4111555;28;20066;-65
2023/08/16 05:13:11;;;;;;;21.77;17.25;;;;;;;21.70;77.47;100803.56;4093127;29;20286;-65
2023/08/16 05:15:15;;;;;;;18.35;16.23;;;;;;;21.60;77.78;100797.66;4096050;29;20039;-65
2023/08/16 05:17:20;;;;;;;17.88;13.85;;;;;;;21.56;77.87;100799.50;4097359;28;20090;-65
2023/08/16 05:19:23;;;;;;;21.90;17.30;;;;;;;21.50;78.17;100802.28;4087484;29;20039;-65
2023/08/16 05:21:26;;;;;;;24.75;19.13;;;;;;;21.55;77.97;100800.44;4094827;29;20110;-65
2023/08/16 05:23:29;;;;;;;21.17;17.92;;;;;;;21.51;78.06;100793.50;4098195;28;20469;-65
2023/08/16 05:25:32;;;;;;;27.50;19.83;;;;;;;21.51;77.76;100793.50;4097765;28;20044;-64
2023/08/16 05:27:35;;;;;;;26.70;19.40;;;;;;;21.49;77.66;100783.81;4097834;28;20135;-65
2023/08/16 05:29:38;;;;;;;22.25;17.65;;;;;;;21.32;78.47;100777.19;4098879;28;20047;-65
2023/08/16 05:31:41;;;;;;;26.55;19.88;;;;;;;21.29;78.72;100771.97;4113458;28;20039;-65
2023/08/16 05:33:46;;;;;;;23.30;17.85;;;;;;;21.22;78.79;100779.19;4095959;29;20137;-65
2023/08/16 05:35:49;;;;;;;24.33;19.17;;;;;;;21.18;79.10;100785.44;4098497;28;20396;-65
2023/08/16 05:37:52;;;;;;;27.38;18.23;;;;;;;21.14;79.49;100791.72;4097232;29;20043;-65
2023/08/16 05:39:55;;;;;;;22.52;17.45;;;;;;;21.22;79.14;100797.69;4112745;28;20051;-65
2023/08/16 05:41:57;;;;;;;26.23;18.35;;;;;;;21.16;79.42;100808.44;4098234;28;20577;-65
2023/08/16 05:44:00;;;;;;;22.60;17.17;;;;;;;21.12;79.63;100812.03;4111752;28;20107;-65
2023/08/16 05:46:03;;;;;;;21.27;17.95;;;;;;;21.11;79.72;100815.59;4097711;28;20067;-66
2023/08/16 05:48:06;;;;;;;24.25;17.95;;;;;;;21.08;80.15;100818.31;4097101;29;20086;-65
2023/08/16 05:50:11;;;;;;;21.52;17.25;;;;;;;21.11;80.29;100823.53;4098258;28;20040;-65
2023/08/16 05:52:14;;;;;;;19.42;15.77;;;;;;;21.18;80.18;100809.25;4098265;29;20126;-65
2023/08/16 05:54:17;;;;;;;22.48;18.15;;;;;;;21.24;80.00;100826.75;4097503;29;20130;-65
2023/08/16 05:56:19;;;;;;;22.20;16.90;;;;;;;21.30;79.88;100825.72;4096220;29;20043;-65
2023/08/16 05:58:22;;;;;;;22.67;16.23;;;;;;;21.36;79.78;100830.88;4098159;28;20035;-65
2023/08/16 06:00:25;;;;;;;26.33;17.80;;;;;;;21.49;79.49;100829.66;4096770;29;20135;-65
2023/08/16 06:02:28;;;;;;;23.30;19.17;;;;;;;21.56;78.71;100828.63;4098038;28;20081;-65
2023/08/16 06:04:31;;;;;;;23.10;20.63;;;;;;;21.61;78.58;100826.72;4097013;29;20047;-65
2023/08/16 06:06:35;;;;;;;23.65;16.63;;;;;;;21.61;78.65;100826.72;4095869;29;20053;-65
2023/08/16 06:08:38;;;;;;;24.42;18.45;;;;;;;21.66;78.56;100817.81;4097673;28;20134;-66
2023/08/16 06:10:41;;;;;;;24.88;18.27;;;;;;;21.69;78.36;100815.94;4096404;29;20043;-65
2023/08/16 06:12:43;;;;;;;19.25;16.17;;;;;;;21.73;78.08;100811.47;4097543;29;20042;-65
2023/08/16 06:14:45;;;;;;;25.95;18.60;;;;;;;21.84;77.66;100817.31;4097477;29;20073;-65
2023/08/16 06:16:48;;;;;;;26.02;16.58;;;;;;;21.87;77.15;100811.06;4097111;29;20043;-65
2023/08/16 06:18:52;;;;;;;20.17;14.63;;;;;;;21.80;77.64;100815.69;4097996;29;20050;-65
2023/08/16 06:20:55;;;;;;;21.63;15.25;;;;;;;21.76;78.00;100820.16;4098043;29;20039;-65
2023/08/16 06:22:59;;;;;;;20.30;16.55;;;;;;;21.89;77.67;100820.72;4093989;29;20122;-66
2023/08/16 06:25:02;;;;;;;19.10;15.68;;;;;;;22.03;76.97;100817.66;4097315;29;20043;-66
2023/08/16 06:27:07;;;;;;;24.63;15.93;;;;;;;22.17;76.15;100822.59;4096341;28;20497;-62
2023/08/16 06:29:10;;;;;;;20.45;15.07;;;;;;;22.13;76.17;100818.28;4096754;28;20058;-68
2023/08/16 06:31:12;;;;;;;9.60;7.50;;;;;;;22.20;77.16;100827.81;4093563;29;20035;-67
2023/08/16 06:33:21;;;;;;;12.43;9.20;;;;;;;22.43;77.25;100826.31;4093834;29;20046;-67
2023/08/16 06:35:25;;;;;;;15.50;10.02;;;;;;;22.64;76.41;100838.06;4091444;28;20482;-67
2023/08/16 06:37:27;;;;;;;11.85;9.82;;;;;;;22.72;75.74;100832.50;4096257;28;20130;-67
2023/08/16 06:39:32;;;;;;;15.38;10.77;;;;;;;22.83;75.03;100841.88;4080156;29;20046;-67
2023/08/16 06:41:35;;;;;;;10.88;7.60;;;;;;;22.91;75.23;100846.94;4097372;28;20050;-67
2023/08/16 06:43:39;;;;;;;10.52;7.22;;;;;;;23.05;75.11;100841.19;4080209;29;20051;-67
2023/08/16 06:45:41;;;;;;;13.20;7.80;;;;;;;23.16;74.72;100843.56;4094469;28;20035;-66
2023/08/16 06:47:43;;;;;;;12.93;9.40;;;;;;;23.22;74.21;100839.81;4093500;28;20122;-67
2023/08/16 06:49:46;;;;;;;13.55;9.52;;;;;;;23.21;73.99;100846.06;4095726;28;20039;-67
2023/08/16 06:51:49;;;;;;;11.02;7.60;;;;;;;23.08;74.17;100846.41;4095789;29;20066;-67
2023/08/16 06:53:52;;;;;;;14.70;8.70;;;;;;;23.07;74.16;100846.44;4096531;29;20039;-67
2023/08/16 06:55:57;;;;;;;11.45;8.75;;;;;;;23.09;74.39;100848.16;4095075;28;20110;-67
2023/08/16 06:58:01;;;;;;;13.50;9.15;;;;;;;23.09;74.03;100842.00;4095442;29;20085;-67
2023/08/16 07:00:05;;;;;;;16.00;9.40;;;;;;;23.14;74.05;100850.69;4095171;29;20053;-67
2023/08/16 07:02:10;;;;;;;13.82;9.88;;;;;;;23.15;73.71;100849.78;4095338;29;20035;-67
2023/08/16 07:04:13;;;;;;;11.63;8.18;;;;;;;23.17;73.89;100846.16;4097228;28;20047;-66
2023/08/16 07:06:17;;;;;;;14.20;9.15;;;;;;;23.24;73.82;100846.81;4111237;28;20047;-67
2023/08/16 07:08:20;;;;;;;14.40;9.13;;;;;;;23.31;73.62;100848.34;4111332;28;20066;-67
2023/08/16 07:10:23;;;;;;;15.90;8.57;;;;;;;23.39;73.39;100855.19;4097220;28;20074;-67
2023/08/16 07:12:27;;;;;;;18.40;12.98;;;;;;;23.41;73.09;100856.00;4096029;28;20047;-67
2023/08/16 07:14:30;;;;;;;13.43;10.57;;;;;;;23.44;72.68;100858.59;4097434;28;20422;-67
2023/08/16 07:16:35;;;;;;;16.48;13.82;;;;;;;23.53;72.11;100863.56;4094166;29;20043;-67
2023/08/16 07:18:38;;;;;;;19.38;11.95;;;;;;;23.56;71.90;100862.59;4096863;29;20085;-67
2023/08/16 07:20:41;;;;;;;16.27;12.00;;;;;;;23.57;71.71;100859.00;4096965;29;20541;-67
2023/08/16 07:22:43;;;;;;;19.58;11.35;;;;;;;23.60;71.88;100857.13;4097324;29;20048;-67
2023/08/16 07:24:46;;;;;;;15.80;10.20;;;;;;;23.67;72.15;100853.38;4096711;29;20039;-67
2023/08/16 07:26:49;;;;;;;15.38;11.18;;;;;;;23.79;71.95;100844.09;4111183;28;20138;-67
2023/08/16 07:28:53;;;;;;;18.95;13.30;;;;;;;23.87;71.30;100851.81;4096110;28;20469;-67
2023/08/16 07:30:56;;;;;;;20.63;12.48;;;;;;;23.80;71.47;100852.94;4094158;29;20039;-67
2023/08/16 07:32:59;;;;;;;21.40;12.82;;;;;;;23.80;71.22;100852.94;4096812;28;20043;-67
2023/08/16 07:35:03;;;;;;;22.55;11.80;;;;;;;23.77;71.46;100847.72;4095273;29;20051;-67
2023/08/16 07:37:06;;;;;;;25.00;14.20;;;;;;;23.88;71.40;100850.91;4094489;29;20122;-67
2023/08/16 07:39:09;;;;;;;23.65;14.70;;;;;;;23.91;71.42;100853.47;4097096;28;20047;-67
2023/08/16 07:41:12;;;;;;;19.95;11.57;;;;;;;23.93;71.42;100854.25;4095372;29;20485;-67
2023/08/16 07:43:15;;;;;;;20.02;12.48;;;;;;;24.00;71.33;100857.56;4095986;29;20090;-67
2023/08/16 07:45:20;;;;;;;18.02;11.45;;;;;;;24.07;70.98;100861.75;4092841;29;20139;-67
2023/08/16 07:47:24;;;;;;;15.93;11.50;;;;;;;24.14;70.82;100860.63;4094737;29;20086;-67
2023/08/16 07:49:27;;;;;;;19.20;12.57;;;;;;;24.21;70.24;100858.59;4098398;28;20047;-67
2023/08/16 07:51:30;;;;;;;20.25;11.18;;;;;;;24.24;69.95;100863.81;4100177;29;20054;-66
2023/08/16 07:53:33;;;;;;;16.00;9.23;;;;;;;24.18;69.71;100870.22;4096685;29;20051;-67
2023/08/16 07:55:36;;;;;;;17.15;9.75;;;;;;;24.21;69.03;100867.44;4098825;29;20037;-67
2023/08/16 07:57:39;;;;;;;16.30;10.38;;;;;;;24.25;68.82;100870.84;4098177;29;20031;-67
2023/08/16 07:59:41;;;;;;;17.08;10.40;;;;;;;24.31;69.14;100872.41;4099983;29;20066;-67
2023/08/16 08:01:46;;;;;;;19.10;11.18;;;;;;;24.36;69.33;100873.13;4098124;29;20091;-67
2023/08/16 08:03:49;;;;;;;;;;;;;;;24.32;69.43;100876.81;4096992;28;20043;-67
2023/08/16 08:05:53;;;;;;;16.63;11.68;;;;;;;24.32;69.28;100872.34;4097470;28;19926;-67
2023/08/16 08:07:55;;;;;;;17.48;10.85;;;;;;;24.45;69.42;100877.22;4099252;28;20122;-66
2023/08/16 08:09:58;;;;;;;19.98;14.80;;;;;;;24.56;68.47;100877.66;4099039;28;20066;-67
2023/08/16 08:12:01;;;;;;;19.10;13.95;;;;;;;24.55;68.67;100884.78;4096944;29;20527;-67
2023/08/16 08:14:04;;;;;;;20.35;14.15;;;;;;;24.61;68.69;100883.72;4097092;29;20043;-67
2023/08/16 08:16:06;;;;;;;22.83;16.27;;;;;;;24.64;68.66;100880.97;4097034;29;20047;-68
2023/08/16 08:18:11;;;;;;;20.20;15.00;;;;;;;24.69;68.50;100878.13;4097801;29;20051;-63
2023/08/16 08:20:15;;;;;;;21.52;15.18;;;;;;;24.62;68.36;100882.81;4100992;28;20047;-65
2023/08/16 08:22:18;;;;;;;24.95;17.13;;;;;;;24.52;68.42;100892.03;4093321;29;20035;-65
2023/08/16 08:24:20;;;;;;;22.25;16.40;;;;;;;24.57;68.40;100887.41;4100751;29;20051;-64
2023/08/16 08:26:25;;;;;;;18.05;14.52;;;;;;;24.56;68.11;100883.00;4099864;29;20043;-64
2023/08/16 08:28:28;;;;;;;17.73;12.00;;;;;;;24.66;67.63;100879.13;4101273;29;20054;-65
2023/08/16 08:30:31;;;;;;;17.58;12.25;;;;;;;24.77;66.75;100875.19;4096185;28;20047;-65
2023/08/16 08:32:34;;;;;;;18.92;11.60;;;;;;;24.81;66.99;100877.66;4092674;29;20116;-64
2023/08/16 08:34:39;;;;;;;19.02;14.40;;;;;;;24.80;66.80;100883.03;4106163;23;20050;-60
2023/08/16 08:36:42;;;;;;;18.23;12.85;;;;;;;24.83;66.72;100873.13;4097476;29;20142;-60
2023/08/16 08:38:45;;;;;;;15.90;12.20;;;;;;;24.95;66.93;100876.25;4117916;28;20030;-59
2023/08/16 08:40:48;;;;;;;22.80;15.68;;;;;;;25.11;65.91;100873.84;4100500;28;20039;-60
2023/08/16 08:42:52;;;;;;;22.27;15.43;;;;;;;25.17;64.67;100868.28;4096657;28;20159;-60
2023/08/16 08:44:55;;;;;;;22.15;16.80;;;;;;;25.18;64.22;100872.69;4094452;28;20126;-60
2023/08/16 08:46:59;;;;;;;17.55;12.27;;;;;;;25.14;64.34;100868.41;4098793;29;20122;-60
2023/08/16 08:49:15;;;;;;;15.13;11.25;;;;;;;24.98;65.65;100873.47;4100881;28;20043;-60
2023/08/16 08:51:19;;;;;;;11.45;8.50;;;;;;;24.98;66.34;100868.16;4101132;28;20078;-60
2023/08/16 08:53:22;;;;;;;15.73;11.23;;;;;;;24.96;66.54;100870.88;4098429;28;20503;-61
2023/08/16 08:55:31;;;;;;;20.50;11.32;;;;;;;25.01;65.96;100873.34;4098835;28;20038;-60
2023/08/16 08:57:35;;;;;;;15.75;11.05;;;;;;;25.01;66.24;100879.53;4094436;28;20039;-60
2023/08/16 08:59:43;;;;;;;18.00;11.63;;;;;;;25.09;66.09;100881.91;4104406;28;20047;-60
2023/08/16 09:01:48;;;;;;;18.67;12.88;;;;;;;25.20;65.95;100884.13;4094412;28;20039;-60
2023/08/16 09:03:53;;;;;;;15.02;11.07;;;;;;;25.35;65.21;100888.88;4110828;28;20050;-61
2023/08/16 09:05:58;;;;;;;14.82;10.30;;;;;;;25.39;64.88;100884.28;4100018;28;20031;-61
2023/08/16 09:08:03;;;;;;;;;;;;;;;25.34;65.26;100886.28;4099209;29;20058;-61
2023/08/16 09:10:06;;;;;;;12.27;9.70;;;;;;;25.49;64.61;100880.31;4106903;28;19922;-61
2023/08/16 09:12:09;;;;;;;15.00;9.52;;;;;;;25.66;63.86;100887.59;4095444;28;20035;-62
2023/08/16 09:14:12;;;;;;;12.48;8.80;;;;;;;25.70;63.41;100875.88;4098180;28;20663;-61
2023/08/16 09:16:15;;;;;;;13.63;8.30;;;;;;;25.86;63.37;100880.53;4100233;29;20047;-62
2023/08/16 09:18:20;;;;;;;14.15;10.00;;;;;;;25.98;62.94;100874.69;4099931;29;20054;-61
2023/08/16 09:20:27;;;;;;;14.32;11.35;;;;;;;26.16;61.03;100869.53;4095977;28;20054;-61
2023/08/16 09:22:28;;;;;;;14.90;9.38;;;;;;;26.02;61.63;100871.00;4099563;29;20126;-61
2023/08/16 09:24:33;;;;;;;14.10;8.35;;;;;;;25.92;61.98;100880.31;4097767;29;20126;-62
2023/08/16 09:26:36;;;;;;;12.32;8.50;;;;;;;25.90;62.54;100866.16;4099156;28;20457;-61
2023/08/16 09:28:39;;;;;;;11.98;7.65;;;;;;;25.85;63.22;100865.50;4100360;29;20054;-61